»·PEaware :: DAL843 KATL-KJFK

DAL843 :: KATL-KJFK

FLIGHT INFORMATION

Flight Status: Arrived
Operator:
Delta Air Lines
More flights by this operator :: More flights under this callsign
Pilot: Andre C. (24931)
Aircraft: BOEING 737-900
(B739)
More flights by this aircraft type
Origin: KATL Hartsfield-Jackson Atlanta
United States
Destination: KJFK Kennedy Intl
United States
More flights between these airports :: More routes between these airports
Route: PHIIL2 GRD Q64 TYI J209 SAWED J121 SIE CAMRN4
File this flight plan on PilotEdge
Remarks: RMK / SIMBRIEF
Altitude:
(Current/Filed)
31,000ft
Speed:
(Current/Filed)
446kts
Departed: 11-Jun-19 08:38 AM
Arrived: 11-Jun-19 10:16 AM
Distance/Time
Traveled:
659nm/1:37
Distance/Time
To Go:
Arrived

Flight Plot

Page will automatically refresh every two minutes.

Flight plan parsing failed; only flown route is shown


Map Options




Map Legend


Flown Route
Filed Route
Departure Airport
Arrival Airport
Navaid (VOR, NDB)
Fix

Horizontal Profiles

Position Reports

Time Latitude Longitude Heading Altitude Ground
Speed
11-Jun-19 08:12 33.639240 -84.438654 268 1015ft 0kts
11-Jun-19 08:13 33.639240 -84.438654 268 1015ft 0kts
11-Jun-19 08:14 33.639240 -84.438654 268 1015ft 0kts
11-Jun-19 08:15 33.639240 -84.438654 268 1015ft 0kts
11-Jun-19 08:16 33.639240 -84.438654 268 1015ft 0kts
11-Jun-19 08:17 33.639240 -84.438654 268 1015ft 0kts
11-Jun-19 08:18 33.639240 -84.438654 268 1015ft 0kts
11-Jun-19 08:19 33.639240 -84.438654 268 1015ft 0kts
11-Jun-19 08:20 33.639240 -84.438654 268 1015ft 0kts
11-Jun-19 08:21 33.639240 -84.438654 268 1015ft 0kts
11-Jun-19 08:22 33.639240 -84.438654 268 1015ft 0kts
11-Jun-19 08:23 33.639240 -84.438654 268 1015ft 0kts
11-Jun-19 08:24 33.639240 -84.438654 268 1015ft 0kts
11-Jun-19 08:25 33.639240 -84.438654 268 1015ft 0kts
11-Jun-19 08:26 33.639240 -84.438654 268 1015ft 0kts
11-Jun-19 08:27 33.639242 -84.438518 268 1015ft 2kts
11-Jun-19 08:28 33.639376 -84.437906 209 1015ft 2kts
11-Jun-19 08:29 33.639574 -84.437860 179 1015ft 0kts
11-Jun-19 08:30 33.639574 -84.437860 179 1015ft 0kts
11-Jun-19 08:31 33.638832 -84.437872 182 1015ft 9kts
11-Jun-19 08:32 33.635811 -84.439310 271 1017ft 18kts
11-Jun-19 08:33 33.635805 -84.444040 269 1021ft 14kts
11-Jun-19 08:34 33.635654 -84.447766 215 1019ft 0kts
11-Jun-19 08:35 33.635331 -84.447802 180 1019ft 6kts
11-Jun-19 08:36 33.634723 -84.447080 91 1020ft 0kts
11-Jun-19 08:37 33.634628 -84.418923 91 1014ft 179kts
11-Jun-19 08:38 33.634215 -84.356573 90 2478ft 221kts
11-Jun-19 08:39 33.633666 -84.272521 90 4725ft 273kts
11-Jun-19 08:40 33.633823 -84.179387 89 7748ft 286kts
11-Jun-19 08:41 33.634360 -84.083135 86 10288ft 309kts
11-Jun-19 08:42 33.639782 -83.973119 86 12513ft 341kts
11-Jun-19 08:43 33.645540 -83.856750 86 15062ft 357kts
11-Jun-19 08:44 33.651327 -83.736158 86 17405ft 372kts
11-Jun-19 08:45 33.659327 -83.612545 77 19557ft 386kts
11-Jun-19 08:46 33.684447 -83.484269 76 21582ft 400kts
11-Jun-19 08:47 33.709233 -83.351771 76 23452ft 413kts
11-Jun-19 08:48 33.732488 -83.226700 76 25016ft 424kts
11-Jun-19 08:49 33.773690 -83.092785 56 26582ft 433kts
11-Jun-19 08:50 33.837113 -82.970342 56 28082ft 442kts
11-Jun-19 08:51 33.902503 -82.843704 56 29446ft 449kts
11-Jun-19 08:52 33.968579 -82.715177 56 30344ft 455kts
11-Jun-19 08:53 34.035329 -82.583930 56 31144ft 463kts
11-Jun-19 08:54 34.103225 -82.449422 56 31149ft 476kts
11-Jun-19 08:55 34.167809 -82.320995 57 31142ft 494kts
11-Jun-19 08:56 34.237628 -82.181671 57 31145ft 493kts
11-Jun-19 08:57 34.309017 -82.039625 56 31146ft 493kts
11-Jun-19 08:58 34.380310 -81.897632 56 31146ft 493kts
11-Jun-19 08:59 34.451496 -81.755251 56 31144ft 493kts
11-Jun-19 09:00 34.522378 -81.612881 56 31143ft 493kts
11-Jun-19 09:01 34.593068 -81.470301 56 31142ft 493kts
11-Jun-19 09:02 34.663677 -81.327296 57 31142ft 493kts
11-Jun-19 09:03 34.733663 -81.185087 57 31148ft 493kts
11-Jun-19 09:04 34.798853 -81.051069 61 31146ft 494kts
11-Jun-19 09:05 34.855687 -80.898887 65 31148ft 494kts
11-Jun-19 09:06 34.911854 -80.745545 65 31144ft 498kts
11-Jun-19 09:07 34.968551 -80.590334 65 31140ft 503kts
11-Jun-19 09:08 35.025394 -80.434028 65 31142ft 509kts
11-Jun-19 09:09 35.083793 -80.272842 65 31187ft 529kts
11-Jun-19 09:10 35.141092 -80.113932 65 31176ft 515kts
11-Jun-19 09:11 35.198576 -79.953705 65 31183ft 514kts
11-Jun-19 09:12 35.255949 -79.793268 65 31202ft 514kts
11-Jun-19 09:13 35.313244 -79.632186 65 31232ft 515kts
11-Jun-19 09:14 35.370299 -79.470893 65 31270ft 514kts
11-Jun-19 09:15 35.426728 -79.310538 66 31306ft 515kts
11-Jun-19 09:16 35.482619 -79.151120 66 31272ft 483kts
11-Jun-19 09:17 35.533484 -79.005277 67 31285ft 467kts
11-Jun-19 09:18 35.584545 -78.858132 67 31323ft 477kts
11-Jun-19 09:19 35.638105 -78.702934 67 31386ft 510kts
11-Jun-19 09:20 35.693851 -78.540539 67 31425ft 516kts
11-Jun-19 09:21 35.749512 -78.377491 67 31477ft 516kts
11-Jun-19 09:22 35.802846 -78.220631 67 31499ft 516kts
11-Jun-19 09:23 35.857946 -78.057769 68 31522ft 517kts
11-Jun-19 09:24 35.913103 -77.893793 68 31554ft 516kts
11-Jun-19 09:25 35.967564 -77.731474 66 31433ft 517kts
11-Jun-19 09:26 36.048794 -77.587227 50 31122ft 513kts
11-Jun-19 09:27 36.135495 -77.447893 51 31111ft 513kts
11-Jun-19 09:28 36.221771 -77.307819 52 31106ft 514kts
11-Jun-19 09:29 36.308240 -77.167007 52 31106ft 513kts
11-Jun-19 09:30 36.394401 -77.026083 52 31108ft 514kts
11-Jun-19 09:31 36.480663 -76.884368 52 31115ft 514kts
11-Jun-19 09:32 36.566868 -76.742119 53 31119ft 515kts
11-Jun-19 09:33 36.652762 -76.599757 53 31115ft 515kts
11-Jun-19 09:35 36.738642 -76.456789 53 31108ft 515kts
11-Jun-19 09:36 36.822298 -76.316939 53 31092ft 515kts
11-Jun-19 09:37 36.917489 -76.193014 32 31097ft 513kts
11-Jun-19 09:38 37.046684 -76.117592 20 31088ft 517kts
11-Jun-19 09:39 37.180454 -76.046716 19 31080ft 523kts
11-Jun-19 09:40 37.314390 -75.975294 19 31085ft 523kts
11-Jun-19 09:41 37.448245 -75.903601 20 31082ft 523kts
11-Jun-19 09:42 37.579118 -75.824663 28 31082ft 526kts
11-Jun-19 09:43 37.704635 -75.730315 28 31086ft 526kts
11-Jun-19 09:44 37.830078 -75.635713 28 31081ft 526kts
11-Jun-19 09:45 37.955953 -75.540593 28 31063ft 526kts
11-Jun-19 09:46 38.082108 -75.446801 23 31069ft 524kts
11-Jun-19 09:47 38.212384 -75.364744 23 31057ft 524kts
11-Jun-19 09:48 38.342812 -75.282528 23 31045ft 524kts
11-Jun-19 09:49 38.471983 -75.200673 23 31042ft 524kts
11-Jun-19 09:50 38.602266 -75.117692 23 31041ft 524kts
11-Jun-19 09:51 38.732593 -75.034291 24 31059ft 522kts
11-Jun-19 09:52 38.861946 -74.951143 24 31050ft 519kts
11-Jun-19 09:53 38.991209 -74.867706 24 31051ft 526kts
11-Jun-19 09:54 39.120216 -74.777041 36 31043ft 533kts
11-Jun-19 09:54 39.209140 -74.677523 38 30805ft 497kts
11-Jun-19 09:56 39.335459 -74.540778 37 27265ft 506kts
11-Jun-19 09:56 39.424144 -74.444094 37 24864ft 495kts
11-Jun-19 09:57 39.527620 -74.330848 37 22007ft 481kts
11-Jun-19 09:59 39.643641 -74.203511 37 18834ft 459kts
11-Jun-19 09:59 39.723229 -74.115799 37 16693ft 442kts
11-Jun-19 10:00 39.814567 -74.014776 37 14253ft 421kts
11-Jun-19 10:01 39.909366 -73.936407 24 12019ft 394kts
11-Jun-19 10:02 40.001256 -73.871527 24 10426ft 356kts
11-Jun-19 10:03 40.084046 -73.819589 19 9225ft 311kts
11-Jun-19 10:04 40.159988 -73.774674 19 7911ft 292kts
11-Jun-19 10:05 40.231817 -73.731942 19 6720ft 281kts
11-Jun-19 10:06 40.300960 -73.690636 19 5585ft 271kts
11-Jun-19 10:07 40.368257 -73.650320 20 4545ft 259kts
11-Jun-19 10:08 40.432758 -73.611521 20 3525ft 251kts
11-Jun-19 10:09 40.494999 -73.573967 18 2528ft 244kts
11-Jun-19 10:10 40.549267 -73.593677 299 1998ft 191kts
11-Jun-19 10:11 40.570932 -73.646347 301 2045ft 168kts
11-Jun-19 10:12 40.590540 -73.689499 302 1618ft 146kts
11-Jun-19 10:13 40.610718 -73.733821 302 912ft 154kts
11-Jun-19 10:14 40.631126 -73.778808 303 103ft 147kts
11-Jun-19 10:15 40.641543 -73.801208 323 11ft 24kts
11-Jun-19 10:16 40.642305 -73.799684 130 12ft 15kts
11-Jun-19 10:17 40.639204 -73.793621 116 12ft 19kts
11-Jun-19 10:18 40.636738 -73.788229 119 11ft 15kts
11-Jun-19 10:19 40.635608 -73.783730 120 11ft 11kts
11-Jun-19 10:20 40.636546 -73.782387 19 14ft 7kts
11-Jun-19 10:21 40.636756 -73.781494 82 14ft 0kts
11-Jun-19 10:22 40.636756 -73.781494 82 14ft 0kts
11-Jun-19 10:23 40.636756 -73.781494 82 14ft 0kts
11-Jun-19 10:24 40.636756 -73.781494 82 14ft 0kts

Navigation Log

Ident Type
Flight plan parsing failed, navigation log unavailable